createdAt,value
2018-10-11T00:01:46.272Z,26.83
2018-10-11T00:04:16.548Z,20.23
2018-10-11T00:06:46.772Z,24.60
2018-10-11T00:09:17.016Z,18.30
2018-10-11T00:11:47.265Z,24.03
2018-10-11T00:14:17.468Z,17.00
2018-10-11T00:16:47.650Z,22.47
2018-10-11T00:19:17.842Z,18.87
2018-10-11T00:21:48.106Z,25.70
2018-10-11T00:24:19.352Z,21.43
2018-10-11T00:26:49.564Z,21.33
2018-10-11T00:29:19.746Z,20.90
2018-10-11T00:31:50.003Z,22.40
2018-10-11T00:34:20.815Z,19.20
2018-10-11T00:36:51.021Z,22.80
2018-10-11T00:39:21.248Z,23.37
2018-10-11T00:41:51.497Z,26.80
2018-10-11T00:44:22.003Z,24.00
2018-10-11T00:46:52.182Z,22.13
2018-10-11T00:49:22.430Z,21.80
2018-10-11T00:51:52.629Z,20.20
2018-10-11T00:54:22.841Z,27.47
2018-10-11T00:56:53.558Z,30.30
2018-10-11T00:59:23.782Z,24.70
2018-10-11T01:01:53.966Z,27.00
2018-10-11T01:04:24.214Z,23.43
2018-10-11T01:06:54.430Z,24.57
2018-10-11T01:09:24.819Z,19.87
2018-10-11T01:11:54.930Z,24.00
2018-10-11T01:14:25.168Z,21.73
2018-10-11T01:16:55.324Z,20.70
2018-10-11T01:19:25.542Z,22.53
2018-10-11T01:21:55.775Z,22.00
2018-10-11T01:24:26.131Z,22.60
2018-10-11T01:26:56.377Z,17.90
2018-10-11T01:29:26.626Z,26.90
2018-10-11T01:31:56.873Z,24.63
2018-10-11T01:34:27.117Z,20.23
2018-10-11T01:36:57.311Z,18.63
2018-10-11T01:39:27.547Z,19.47
2018-10-11T01:41:57.781Z,21.57
2018-10-11T01:44:28.041Z,22.60
2018-10-11T01:46:58.265Z,17.63
2018-10-11T01:49:28.495Z,20.83
2018-10-11T01:51:58.709Z,19.97
2018-10-11T01:54:28.967Z,25.20
2018-10-11T01:56:59.191Z,20.40
2018-10-11T01:59:29.403Z,17.40
2018-10-11T02:01:59.571Z,25.40
2018-10-11T02:04:29.830Z,21.57
2018-10-11T02:07:00.029Z,17.73
2018-10-11T02:09:36.974Z,19.20
2018-10-11T02:12:07.289Z,27.80
2018-10-11T02:14:37.561Z,35.17
2018-10-11T02:17:07.765Z,19.60
2018-10-11T02:19:37.976Z,18.80
2018-10-11T02:22:08.197Z,21.90
2018-10-11T02:24:38.433Z,23.67
2018-10-11T02:27:08.623Z,24.43
2018-10-11T02:29:38.843Z,25.10
2018-10-11T02:32:09.160Z,38.70
2018-10-11T02:34:39.403Z,18.00
2018-10-11T02:37:09.887Z,18.93
2018-10-11T02:39:40.093Z,16.33
2018-10-11T02:42:10.537Z,21.27
2018-10-11T02:44:41.043Z,18.90
2018-10-11T02:47:11.697Z,19.23
2018-10-11T02:49:42.437Z,18.27
2018-10-11T02:52:12.937Z,17.43
2018-10-11T02:54:43.210Z,20.93
2018-10-11T02:57:30.397Z,22.77
2018-10-11T03:00:01.430Z,19.83
2018-10-11T03:02:31.728Z,14.37
2018-10-11T03:05:02.334Z,19.07
2018-10-11T03:07:32.610Z,15.63
2018-10-11T03:10:02.864Z,16.73
2018-10-11T03:12:33.062Z,21.47
2018-10-11T03:15:03.273Z,15.60
2018-10-11T03:17:33.468Z,26.50
2018-10-11T03:20:03.770Z,15.97
2018-10-11T03:22:33.930Z,18.83
2018-10-11T03:25:04.214Z,18.30
2018-10-11T03:27:34.334Z,17.93
2018-10-11T03:30:04.560Z,15.77
2018-10-11T03:32:34.708Z,17.23
2018-10-11T03:35:05.017Z,16.10
2018-10-11T03:37:35.224Z,25.53
2018-10-11T03:40:05.702Z,25.40
2018-10-11T03:42:35.884Z,14.90
2018-10-11T03:45:06.128Z,21.27
2018-10-11T03:47:36.321Z,19.93
2018-10-11T03:50:06.575Z,17.10
2018-10-11T03:52:43.508Z,24.73
2018-10-11T03:55:13.764Z,21.50
2018-10-11T03:57:43.940Z,16.53
2018-10-11T04:00:14.152Z,16.23
2018-10-11T04:02:44.370Z,18.00
2018-10-11T04:05:15.170Z,28.17
2018-10-11T04:07:45.385Z,14.40
2018-10-11T04:10:15.606Z,14.33
2018-10-11T04:12:45.853Z,17.60
2018-10-11T04:15:16.055Z,13.20
2018-10-11T04:17:46.255Z,19.87
2018-10-11T04:20:16.472Z,13.90
2018-10-11T04:22:46.644Z,12.67
2018-10-11T04:25:16.890Z,16.80
2018-10-11T04:27:47.993Z,16.83
2018-10-11T04:30:18.836Z,13.70
2018-10-11T04:32:49.648Z,14.90
2018-10-11T04:35:19.892Z,12.20
2018-10-11T04:37:50.353Z,13.60
2018-10-11T04:40:20.565Z,18.23
2018-10-11T04:42:50.906Z,14.23
2018-10-11T04:45:21.062Z,15.30
2018-10-11T04:47:52.370Z,13.33
2018-10-11T04:50:22.578Z,16.13
2018-10-11T04:52:52.854Z,15.30
2018-10-11T04:55:23.147Z,15.23
2018-10-11T04:57:53.354Z,16.00
2018-10-11T05:00:23.592Z,14.10
2018-10-11T05:02:53.934Z,13.60
2018-10-11T05:05:24.270Z,16.60
2018-10-11T05:07:54.451Z,15.60
2018-10-11T05:10:24.755Z,13.30
2018-10-11T05:12:55.337Z,22.00
2018-10-11T05:15:26.362Z,21.70
2018-10-11T05:17:56.912Z,22.70
2018-10-11T05:20:27.222Z,20.73
2018-10-11T05:22:57.447Z,16.43
2018-10-11T05:25:27.689Z,17.50
2018-10-11T05:27:57.883Z,17.40
2018-10-11T05:30:28.158Z,19.33
2018-10-11T05:32:58.954Z,18.10
2018-10-11T05:35:29.171Z,25.43
2018-10-11T05:37:59.462Z,16.97
2018-10-11T05:40:29.782Z,19.50
2018-10-11T05:43:01.110Z,16.17
2018-10-11T05:45:31.512Z,20.43
2018-10-11T05:48:01.752Z,21.50
2018-10-11T05:50:32.022Z,21.63
2018-10-11T05:53:02.592Z,19.20
2018-10-11T05:55:32.990Z,16.50
2018-10-11T05:58:03.288Z,14.23
2018-10-11T06:00:33.543Z,25.17
2018-10-11T06:03:04.617Z,21.20
2018-10-11T06:05:35.354Z,20.87
2018-10-11T06:08:05.830Z,21.90
2018-10-11T06:10:39.166Z,22.80
2018-10-11T06:13:10.412Z,25.37
2018-10-11T06:15:41.488Z,25.23
2018-10-11T06:18:12.914Z,25.93
2018-10-11T06:20:43.425Z,25.97
2018-10-11T06:23:14.116Z,71.47
2018-10-11T06:25:44.839Z,143.97
2018-10-11T06:28:16.788Z,21.30
2018-10-11T06:30:48.002Z,16.10
2018-10-11T06:33:19.093Z,15.63
2018-10-11T06:35:49.450Z,29.80
2018-10-11T06:38:19.734Z,19.77
2018-10-11T06:40:50.011Z,17.37
2018-10-11T06:43:20.587Z,13.40
2018-10-11T06:45:50.930Z,16.77
2018-10-11T06:48:21.207Z,9.83
2018-10-11T06:50:51.473Z,14.27
2018-10-11T06:53:21.951Z,15.43
2018-10-11T06:55:53.932Z,11.30
2018-10-11T06:58:24.245Z,15.80
2018-10-11T07:00:54.584Z,10.07
2018-10-11T07:03:24.822Z,10.83
2018-10-11T07:05:55.055Z,14.50
2018-10-11T07:08:25.352Z,16.13
2018-10-11T07:10:55.588Z,15.70
2018-10-11T07:13:26.037Z,16.53
2018-10-11T07:15:56.325Z,19.63
2018-10-11T07:18:26.595Z,11.87
2018-10-11T07:20:56.921Z,15.73
2018-10-11T07:23:27.131Z,17.17
2018-10-11T07:25:57.442Z,9.63
2018-10-11T07:28:27.611Z,9.17
2018-10-11T07:30:57.832Z,14.17
2018-10-11T07:33:28.113Z,19.30
2018-10-11T07:35:58.573Z,11.93
2018-10-11T07:38:28.815Z,10.47
2018-10-11T07:40:59.137Z,6.93
2018-10-11T07:43:29.319Z,21.30
2018-10-11T07:45:59.563Z,9.73
2018-10-11T07:48:29.883Z,12.60
2018-10-11T07:51:00.146Z,19.43
2018-10-11T07:53:30.527Z,39.80
2018-10-11T07:56:00.859Z,16.23
2018-10-11T07:58:31.113Z,12.00
2018-10-11T08:01:01.446Z,11.23
2018-10-11T08:03:31.764Z,13.97
2018-10-11T08:06:02.330Z,12.43
2018-10-11T08:08:32.641Z,23.00
2018-10-11T08:11:03.341Z,11.70
2018-10-11T08:13:33.843Z,12.10
2018-10-11T08:16:04.398Z,19.23
2018-10-11T08:18:34.755Z,10.20
2018-10-11T08:21:05.014Z,7.93
2018-10-11T08:23:35.388Z,8.63
2018-10-11T08:26:06.197Z,7.60
2018-10-11T08:28:36.074Z,10.47
2018-10-11T08:31:07.602Z,10.83
2018-10-11T08:33:37.926Z,14.90
2018-10-11T08:36:08.728Z,12.10
2018-10-11T08:38:39.697Z,11.27
2018-10-11T08:41:10.659Z,6.10
2018-10-11T08:43:41.065Z,7.50
2018-10-11T08:46:11.934Z,8.73
2018-10-11T08:48:42.504Z,8.87
2018-10-11T08:51:13.995Z,18.83
2018-10-11T08:53:44.411Z,16.50
2018-10-11T08:56:15.140Z,5.37
2018-10-11T08:58:46.448Z,7.77
2018-10-11T09:01:17.464Z,9.93
2018-10-11T09:03:48.235Z,5.33
2018-10-11T09:06:18.852Z,12.67
2018-10-11T09:08:49.492Z,12.37
2018-10-11T09:11:20.623Z,23.33
2018-10-11T09:13:50.986Z,12.43
2018-10-11T09:16:21.457Z,13.30
2018-10-11T09:18:51.844Z,15.17
2018-10-11T09:21:22.096Z,13.80
2018-10-11T09:23:52.407Z,5.57
2018-10-11T09:26:22.788Z,15.80
2018-10-11T09:28:53.198Z,16.73
2018-10-11T09:31:23.481Z,7.10
2018-10-11T09:33:53.738Z,22.83
2018-10-11T09:36:24.151Z,18.53
2018-10-11T09:38:54.298Z,11.27
2018-10-11T09:41:24.900Z,9.70
2018-10-11T09:43:55.136Z,16.30
2018-10-11T09:46:32.651Z,7.70
2018-10-11T09:49:03.398Z,11.57
2018-10-11T09:51:33.780Z,8.03
2018-10-11T09:54:04.153Z,5.00
2018-10-11T09:57:39.124Z,4.90
2018-10-11T10:01:13.942Z,3.47
2018-10-11T10:03:45.626Z,7.20
2018-10-11T10:06:16.502Z,4.40
2018-10-11T10:08:47.232Z,4.27
2018-10-11T10:11:18.439Z,3.57
2018-10-11T10:13:49.668Z,4.50
2018-10-11T10:16:22.860Z,3.10
2018-10-11T10:18:53.174Z,4.63
2018-10-11T10:21:23.443Z,7.73
2018-10-11T10:23:53.628Z,4.83
2018-10-11T10:26:23.845Z,10.10
2018-10-11T10:28:54.145Z,6.63
2018-10-11T10:31:24.326Z,5.27
2018-10-11T10:33:54.752Z,3.90
2018-10-11T10:36:24.962Z,4.30
2018-10-11T10:38:55.187Z,3.97
2018-10-11T10:41:25.828Z,3.20
2018-10-11T10:43:56.288Z,4.20
2018-10-11T10:46:26.676Z,4.07
2018-10-11T10:48:57.047Z,3.47
2018-10-11T10:51:27.345Z,4.70
2018-10-11T10:53:57.651Z,5.67
2018-10-11T10:56:27.910Z,4.60
2018-10-11T10:58:58.204Z,5.67
2018-10-11T11:01:28.487Z,4.93
2018-10-11T11:03:59.554Z,4.10
2018-10-11T11:06:29.880Z,3.93
2018-10-11T11:09:00.246Z,5.07
2018-10-11T11:11:30.512Z,4.67
2018-10-11T11:14:00.758Z,5.93
2018-10-11T11:16:31.084Z,17.20
2018-10-11T11:19:01.503Z,4.73
2018-10-11T11:21:31.633Z,4.20
2018-10-11T11:24:02.064Z,20.40
2018-10-11T11:26:32.753Z,7.00
2018-10-11T11:29:04.122Z,4.43
2018-10-11T11:31:34.379Z,21.90
2018-10-11T11:34:04.994Z,11.50
2018-10-11T11:36:35.662Z,7.37
2018-10-11T11:39:09.498Z,4.30
2018-10-11T11:41:40.483Z,6.50
2018-10-11T11:44:11.459Z,3.80
2018-10-11T11:46:42.051Z,4.17
2018-10-11T11:49:12.376Z,5.53
2018-10-11T11:51:42.785Z,4.80
2018-10-11T11:54:20.187Z,3.93
2018-10-11T11:56:51.247Z,3.47
2018-10-11T11:59:22.581Z,3.90
2018-10-11T12:01:52.802Z,4.37
2018-10-11T12:04:23.121Z,10.20
2018-10-11T12:06:53.575Z,6.90
2018-10-11T12:09:23.959Z,7.67
2018-10-11T12:11:54.317Z,3.03
2018-10-11T12:14:24.697Z,2.60
2018-10-11T12:16:54.969Z,3.90
2018-10-11T12:19:25.273Z,5.93
2018-10-11T12:21:55.483Z,3.00
2018-10-11T12:24:25.821Z,3.90
2018-10-11T12:26:56.180Z,7.13
2018-10-11T12:29:26.421Z,2.37
2018-10-11T12:31:56.681Z,4.80
2018-10-11T12:34:27.104Z,3.20
2018-10-11T12:36:57.325Z,2.43
2018-10-11T12:39:27.617Z,2.50
2018-10-11T12:41:57.912Z,3.17
2018-10-11T12:44:28.563Z,6.63
2018-10-11T12:46:58.864Z,8.30
2018-10-11T12:49:29.205Z,2.60
2018-10-11T12:51:59.455Z,11.00
2018-10-11T12:54:29.700Z,2.80
2018-10-11T12:57:00.042Z,5.37
2018-10-11T12:59:30.295Z,3.33
2018-10-11T13:02:00.517Z,2.60
2018-10-11T13:04:30.780Z,2.00
2018-10-11T13:07:00.919Z,2.27
2018-10-11T13:09:32.849Z,2.60
2018-10-11T13:12:03.442Z,2.10
2018-10-11T13:14:33.677Z,2.73
2018-10-11T13:17:03.904Z,2.27
2018-10-11T13:19:34.178Z,2.60
2018-10-11T13:22:04.531Z,2.50
2018-10-11T13:24:39.766Z,3.03
2018-10-11T13:27:05.155Z,3.43
2018-10-11T13:29:35.477Z,4.07
2018-10-11T13:32:05.841Z,11.33
2018-10-11T13:34:36.157Z,2.30
2018-10-11T13:37:06.459Z,2.60
2018-10-11T13:39:36.824Z,2.73
2018-10-11T13:42:07.055Z,17.13
2018-10-11T13:44:37.414Z,6.13
2018-10-11T13:47:07.818Z,10.30
2018-10-11T13:49:38.375Z,7.23
2018-10-11T13:52:13.191Z,6.17
2018-10-11T13:54:39.451Z,9.63
2018-10-11T13:57:09.809Z,15.30
2018-10-11T13:59:40.714Z,8.10
2018-10-11T14:02:11.404Z,15.90
2018-10-11T14:04:42.103Z,10.70
2018-10-11T14:07:12.561Z,9.57
2018-10-11T14:09:43.405Z,35.17
2018-10-11T14:12:13.857Z,18.40
2018-10-11T14:14:44.232Z,10.83
2018-10-11T14:17:14.727Z,15.47
2018-10-11T14:19:45.156Z,9.30
2018-10-11T14:22:15.868Z,8.67
2018-10-11T14:24:46.476Z,13.03
2018-10-11T14:27:17.300Z,10.70
2018-10-11T14:29:48.320Z,8.93
2018-10-11T14:32:19.353Z,9.00
2018-10-11T14:34:50.699Z,9.03
2018-10-11T14:37:22.728Z,9.13
2018-10-11T14:39:53.057Z,13.40
2018-10-11T14:42:23.359Z,13.13
2018-10-11T14:44:53.699Z,9.50
2018-10-11T14:47:24.271Z,11.07
2018-10-11T14:49:54.752Z,10.80
2018-10-11T14:52:25.010Z,7.13
2018-10-11T14:54:55.301Z,9.77
2018-10-11T14:57:25.837Z,13.40
2018-10-11T14:59:56.017Z,24.73
2018-10-11T15:02:26.231Z,11.37
2018-10-11T15:04:56.501Z,10.10
2018-10-11T15:07:26.804Z,17.77
2018-10-11T15:09:57.005Z,7.87
2018-10-11T15:12:27.233Z,9.20
2018-10-11T15:14:57.489Z,8.30
2018-10-11T15:17:27.845Z,8.27
2018-10-11T15:19:58.091Z,7.03
2018-10-11T15:22:34.815Z,7.73
2018-10-11T15:25:05.885Z,10.07
2018-10-11T15:27:36.201Z,9.30
2018-10-11T15:30:07.436Z,17.00
2018-10-11T15:32:37.831Z,11.00
2018-10-11T15:35:08.456Z,13.87
2018-10-11T15:37:38.902Z,12.47
2018-10-11T15:40:09.588Z,11.00
2018-10-11T15:42:39.993Z,13.97
2018-10-11T15:45:10.574Z,9.50
2018-10-11T15:47:40.849Z,7.23
2018-10-11T15:50:11.580Z,9.53
2018-10-11T15:52:42.057Z,13.77
2018-10-11T15:55:12.611Z,10.70
2018-10-11T15:57:43.194Z,10.23
2018-10-11T16:00:13.710Z,15.23
2018-10-11T16:02:44.148Z,13.77
2018-10-11T16:05:14.777Z,11.60
2018-10-11T16:07:45.247Z,16.07
2018-10-11T16:10:15.657Z,12.53
2018-10-11T16:12:45.887Z,8.93
2018-10-11T16:15:16.204Z,18.23
2018-10-11T16:17:46.449Z,12.93
2018-10-11T16:20:16.628Z,16.23
2018-10-11T16:22:46.870Z,12.13
2018-10-11T16:25:17.685Z,10.50
2018-10-11T16:27:48.059Z,8.60
2018-10-11T16:30:18.204Z,10.87
2018-10-11T16:32:48.434Z,20.13
2018-10-11T16:35:18.727Z,8.47
2018-10-11T16:37:48.919Z,14.63
2018-10-11T16:40:19.209Z,11.77
2018-10-11T16:42:49.548Z,16.53
2018-10-11T16:45:19.869Z,11.20
2018-10-11T16:47:50.122Z,13.00
2018-10-11T16:50:20.482Z,15.23
2018-10-11T16:52:50.753Z,11.40
2018-10-11T16:55:21.031Z,16.60
2018-10-11T16:57:51.243Z,16.00
2018-10-11T17:00:21.506Z,30.93
2018-10-11T17:02:51.757Z,15.93
2018-10-11T17:05:22.043Z,12.60
2018-10-11T17:07:52.292Z,16.30
2018-10-11T17:10:22.548Z,14.83
2018-10-11T17:12:52.740Z,15.20
2018-10-11T17:15:23.010Z,21.13
2018-10-11T17:17:53.216Z,13.10
2018-10-11T17:20:23.438Z,28.70
2018-10-11T17:22:53.683Z,17.20
2018-10-11T17:25:23.900Z,20.00
2018-10-11T17:27:54.138Z,14.50
2018-10-11T17:30:25.416Z,31.13
2018-10-11T17:32:56.239Z,24.60
2018-10-11T17:35:26.776Z,14.40
2018-10-11T17:37:56.955Z,22.23
2018-10-11T17:40:30.097Z,22.70
2018-10-11T17:43:00.313Z,21.43
2018-10-11T17:45:30.597Z,20.30
2018-10-11T17:48:00.800Z,15.17
2018-10-11T17:50:31.094Z,13.20
2018-10-11T17:53:01.703Z,16.73
2018-10-11T17:55:35.135Z,16.67
2018-10-11T17:58:05.380Z,14.80
2018-10-11T18:00:35.628Z,22.60
2018-10-11T18:03:05.943Z,30.80
2018-10-11T18:05:36.156Z,28.00
2018-10-11T18:08:06.374Z,18.37
2018-10-11T18:10:37.790Z,22.37
2018-10-11T18:13:08.101Z,23.97
2018-10-11T18:15:39.441Z,22.53
2018-10-11T18:18:10.264Z,32.43
2018-10-11T18:20:40.554Z,17.03
2018-10-11T18:23:10.829Z,24.63
2018-10-11T18:25:41.029Z,19.47
2018-10-11T18:28:11.271Z,36.23
2018-10-11T18:30:41.485Z,25.43
2018-10-11T18:33:11.702Z,29.87
2018-10-11T18:35:42.075Z,25.33
2018-10-11T18:38:12.390Z,20.17
2018-10-11T18:40:42.676Z,17.83
2018-10-11T18:43:12.907Z,20.00
2018-10-11T18:45:43.152Z,19.23
2018-10-11T18:48:13.563Z,25.80
2018-10-11T18:50:43.821Z,28.97
2018-10-11T18:53:14.037Z,23.60
2018-10-11T18:55:44.365Z,23.73
2018-10-11T18:58:14.597Z,20.23
2018-10-11T19:00:45.027Z,19.97
2018-10-11T19:03:15.444Z,18.30
2018-10-11T19:05:45.964Z,25.23
2018-10-11T19:08:16.165Z,19.60
2018-10-11T19:10:46.423Z,25.80
2018-10-11T19:13:16.816Z,22.73
2018-10-11T19:15:47.063Z,20.03
2018-10-11T19:18:17.291Z,24.40
2018-10-11T19:20:47.576Z,20.10
2018-10-11T19:23:17.721Z,24.17
2018-10-11T19:25:49.222Z,16.27
2018-10-11T19:28:19.802Z,16.67
2018-10-11T19:30:50.106Z,17.10
2018-10-11T19:33:20.301Z,20.97
2018-10-11T19:35:51.010Z,20.23
2018-10-11T19:38:21.212Z,24.43
2018-10-11T19:40:51.486Z,25.40
2018-10-11T19:43:21.729Z,20.57
2018-10-11T19:45:52.238Z,18.93
2018-10-11T19:48:22.648Z,24.10
2018-10-11T19:50:52.820Z,22.47
2018-10-11T19:53:23.052Z,20.63
2018-10-11T19:55:53.285Z,23.33
2018-10-11T19:58:23.637Z,27.50
2018-10-11T20:00:53.904Z,26.80
2018-10-11T20:03:24.077Z,27.33
2018-10-11T20:05:54.318Z,31.03
2018-10-11T20:08:24.532Z,20.00
2018-10-11T20:10:54.763Z,22.67
2018-10-11T20:13:24.976Z,21.53
2018-10-11T20:15:55.287Z,19.43
2018-10-11T20:18:25.508Z,19.20
2018-10-11T20:20:55.793Z,26.83
2018-10-11T20:23:26.033Z,22.67
2018-10-11T20:25:56.352Z,22.60
2018-10-11T20:28:26.511Z,18.03
2018-10-11T20:30:56.769Z,22.80
2018-10-11T20:33:27.025Z,19.97
2018-10-11T20:35:57.288Z,19.80
2018-10-11T20:38:28.414Z,20.90
2018-10-11T20:40:58.659Z,24.03
2018-10-11T20:43:28.885Z,24.03
2018-10-11T20:45:59.098Z,20.57
2018-10-11T20:48:29.407Z,20.33
2018-10-11T20:50:59.723Z,22.60
2018-10-11T20:53:29.892Z,20.87
2018-10-11T20:56:00.172Z,22.23
2018-10-11T20:58:30.458Z,21.57
2018-10-11T21:01:00.708Z,20.50
2018-10-11T21:03:30.952Z,22.03
2018-10-11T21:06:01.245Z,24.83
2018-10-11T21:08:31.466Z,23.20
2018-10-11T21:11:01.950Z,22.10
2018-10-11T21:13:32.147Z,21.73
2018-10-11T21:16:02.401Z,28.53
2018-10-11T21:18:32.572Z,24.00
2018-10-11T21:21:02.871Z,22.50
2018-10-11T21:23:33.038Z,19.43
2018-10-11T21:26:03.317Z,20.17
2018-10-11T21:28:33.500Z,21.30
2018-10-11T21:31:03.744Z,23.47
2018-10-11T21:33:34.526Z,21.63
2018-10-11T21:36:04.810Z,23.10
2018-10-11T21:38:35.286Z,22.13
2018-10-11T21:41:05.597Z,24.43
2018-10-11T21:43:35.896Z,21.90
2018-10-11T21:46:06.189Z,19.37
2018-10-11T21:48:36.342Z,22.77
2018-10-11T21:51:06.910Z,20.10
2018-10-11T21:53:37.118Z,24.23
2018-10-11T21:56:07.379Z,17.87
2018-10-11T21:58:37.609Z,18.00
2018-10-11T22:01:12.980Z,30.30
2018-10-11T22:03:43.227Z,23.73
2018-10-11T22:06:13.493Z,19.97
2018-10-11T22:08:44.065Z,16.73
2018-10-11T22:11:14.586Z,22.77
2018-10-11T22:13:44.830Z,19.63
2018-10-11T22:16:15.066Z,23.97
2018-10-11T22:18:45.302Z,19.70
2018-10-11T22:21:15.569Z,19.33
2018-10-11T22:23:45.789Z,18.87
2018-10-11T22:26:16.030Z,24.73
2018-10-11T22:28:46.219Z,22.87
2018-10-11T22:31:16.450Z,20.27
2018-10-11T22:33:46.663Z,16.63
2018-10-11T22:36:16.903Z,23.47
2018-10-11T22:38:47.081Z,21.17
2018-10-11T22:41:17.378Z,20.33
2018-10-11T22:43:47.655Z,21.83
2018-10-11T22:46:17.973Z,19.17
2018-10-11T22:48:48.196Z,18.47
2018-10-11T22:51:18.492Z,19.77
2018-10-11T22:53:48.840Z,20.40
2018-10-11T22:56:21.674Z,16.60
2018-10-11T22:58:53.014Z,19.20
2018-10-11T23:01:23.410Z,20.37
2018-10-11T23:03:53.616Z,19.00
2018-10-11T23:06:23.910Z,26.47
2018-10-11T23:08:54.108Z,20.70
2018-10-11T23:11:24.880Z,18.10
2018-10-11T23:13:55.084Z,16.73
2018-10-11T23:16:25.316Z,21.53
2018-10-11T23:18:55.494Z,16.27
2018-10-11T23:21:27.251Z,20.20
2018-10-11T23:23:57.518Z,18.47
2018-10-11T23:26:27.746Z,21.17
2018-10-11T23:28:57.950Z,33.77
2018-10-11T23:31:28.138Z,22.83
2018-10-11T23:33:58.316Z,16.33
2018-10-11T23:36:28.528Z,22.03
2018-10-11T23:38:58.778Z,17.20
2018-10-11T23:41:29.047Z,18.87
2018-10-11T23:43:59.210Z,23.53
2018-10-11T23:46:29.468Z,21.63
2018-10-11T23:48:59.676Z,16.73
2018-10-11T23:51:29.898Z,21.37
2018-10-11T23:54:00.090Z,21.10
2018-10-11T23:56:30.316Z,15.10
2018-10-11T23:59:00.496Z,16.57
